Time;durP1;ratioP1;P1;durP2;ratioP2;P2;SDS_P1;SDS_P2;PMS_P1;PMS_P2;Temp;Humidity;BMP_temperature;BMP_pressure;BME280_temperature;BME280_humidity;BME280_pressure;Samples;Min_cycle;Max_cycle;Signal;HPM_P1;HPM_P2
2023/06/20 00:02:03;;;;;;;1.47;1.47;;;23.70;68.10;;;;;;5066285;28;43531;-75
2023/06/20 00:04:31;;;;;;;1.60;1.60;;;23.70;68.10;;;;;;5065695;28;43996;-75
2023/06/20 00:07:01;;;;;;;1.33;1.33;;;23.70;68.00;;;;;;5065187;28;43488;-75
2023/06/20 00:09:29;;;;;;;1.40;1.40;;;23.70;67.90;;;;;;5067493;28;43939;-76
2023/06/20 00:11:57;;;;;;;1.70;1.70;;;23.60;68.30;;;;;;5070706;28;43950;-75
2023/06/20 00:14:25;;;;;;;1.30;1.30;;;23.60;68.30;;;;;;5069270;28;43870;-75
2023/06/20 00:16:59;;;;;;;1.50;1.50;;;23.60;68.20;;;;;;5069197;28;43444;-75
2023/06/20 00:19:27;;;;;;;1.30;1.30;;;23.60;68.20;;;;;;5069742;28;43486;-76
2023/06/20 00:21:55;;;;;;;1.57;1.57;;;23.60;68.50;;;;;;5069021;28;43446;-75
2023/06/20 00:24:24;;;;;;;1.33;1.33;;;23.60;68.70;;;;;;5068169;28;46013;-75
2023/06/20 00:26:52;;;;;;;1.30;1.30;;;23.60;68.70;;;;;;5068963;28;43494;-75
2023/06/20 00:29:20;;;;;;;1.40;1.40;;;23.70;68.30;;;;;;5070071;28;43323;-74
2023/06/20 00:31:48;;;;;;;1.50;1.50;;;23.80;67.80;;;;;;5069847;28;43348;-74
2023/06/20 00:34:16;;;;;;;1.47;1.47;;;23.90;67.50;;;;;;5067971;28;45449;-75
2023/06/20 00:36:44;;;;;;;1.23;1.23;;;23.90;67.30;;;;;;5067977;28;43403;-76
2023/06/20 00:39:12;;;;;;;1.40;1.40;;;23.90;67.30;;;;;;5069700;28;44020;-75
2023/06/20 00:41:42;;;;;;;1.47;1.47;;;23.80;67.50;;;;;;5069736;28;43412;-75
2023/06/20 00:44:12;;;;;;;1.60;1.60;;;23.80;68.00;;;;;;5067672;28;45732;-74
2023/06/20 00:46:41;;;;;;;1.40;1.40;;;23.70;68.00;;;;;;5067462;28;45358;-74
2023/06/20 00:49:10;;;;;;;1.40;1.40;;;23.70;67.90;;;;;;5067847;28;43485;-76
2023/06/20 00:51:38;;;;;;;1.60;1.60;;;23.70;68.00;;;;;;5068035;28;43965;-75
2023/06/20 00:54:06;;;;;;;1.40;1.40;;;23.70;68.40;;;;;;5068991;28;43890;-75
2023/06/20 00:56:34;;;;;;;1.50;1.50;;;23.60;68.40;;;;;;5069118;28;43510;-75
2023/06/20 00:59:04;;;;;;;1.50;1.50;;;23.60;68.20;;;;;;5067317;28;43898;-75
2023/06/20 01:01:32;;;;;;;1.50;1.50;;;23.60;68.20;;;;;;5068002;28;43526;-78
2023/06/20 01:04:01;;;;;;;1.50;1.50;;;23.60;68.60;;;;;;5066458;28;46000;-74
2023/06/20 01:06:35;;;;;;;1.37;1.37;;;23.60;68.70;;;;;;5068619;28;43365;-74
2023/06/20 01:09:06;;;;;;;1.40;1.40;;;23.70;68.60;;;;;;5069238;28;43387;-74
2023/06/20 01:11:38;;;;;;;1.57;1.57;;;23.80;68.20;;;;;;5063600;28;43399;-74
2023/06/20 01:14:21;;;;;;;1.53;1.53;;;23.90;67.90;;;;;;5067162;28;46106;-76
2023/06/20 01:16:52;;;;;;;1.57;1.53;;;23.90;67.60;;;;;;5068551;28;43410;-76
2023/06/20 01:19:24;;;;;;;1.60;1.60;;;23.90;67.60;;;;;;5066802;28;43459;-73
2023/06/20 01:21:55;;;;;;;1.27;1.27;;;23.80;67.70;;;;;;5069227;28;43383;-74
2023/06/20 01:24:29;;;;;;;1.47;1.47;;;23.80;68.20;;;;;;5068412;28;43854;-75
2023/06/20 01:27:01;;;;;;;1.50;1.50;;;23.70;68.10;;;;;;5068304;28;43846;-74
2023/06/20 01:29:32;;;;;;;1.53;1.53;;;23.70;68.00;;;;;;5068831;28;43370;-75
2023/06/20 01:32:01;;;;;;;1.50;1.50;;;23.70;68.20;;;;;;5067416;28;43574;-75
2023/06/20 01:34:30;;;;;;;1.50;1.50;;;23.60;69.20;;;;;;5067919;28;43952;-76
2023/06/20 01:36:59;;;;;;;1.57;1.57;;;23.60;68.50;;;;;;5066684;28;44598;-75
2023/06/20 01:39:31;;;;;;;1.27;1.27;;;23.60;68.40;;;;;;5068357;28;43370;-75
2023/06/20 01:41:59;;;;;;;1.37;1.37;;;23.60;68.40;;;;;;5062626;28;43414;-76
2023/06/20 01:44:28;;;;;;;1.67;1.67;;;23.60;68.80;;;;;;5060510;28;45880;-75
2023/06/20 01:46:57;;;;;;;1.50;1.50;;;23.60;68.80;;;;;;5066537;28;44413;-76
2023/06/20 01:49:25;;;;;;;1.50;1.50;;;23.70;68.60;;;;;;5062996;28;43367;-75
2023/06/20 01:51:55;;;;;;;1.40;1.40;;;23.80;68.10;;;;;;5067130;28;43465;-75
2023/06/20 01:54:24;;;;;;;1.50;1.50;;;23.90;67.80;;;;;;5062260;28;43875;-74
2023/06/20 01:56:53;;;;;;;1.60;1.60;;;23.90;67.50;;;;;;5067114;28;45032;-74
2023/06/20 01:59:21;;;;;;;1.60;1.60;;;23.90;67.40;;;;;;5099860;27;43461;-74
2023/06/20 02:01:49;;;;;;;1.50;1.50;;;23.80;67.30;;;;;;5067119;28;44054;-74
2023/06/20 02:04:17;;;;;;;1.40;1.40;;;23.80;68.00;;;;;;5066544;28;46199;-76
2023/06/20 02:06:45;;;;;;;1.23;1.23;;;23.80;68.10;;;;;;5066852;28;44845;-74
2023/06/20 02:09:13;;;;;;;1.40;1.40;;;23.70;67.90;;;;;;5068335;28;43991;-74
2023/06/20 02:11:41;;;;;;;1.40;1.40;;;23.70;68.00;;;;;;5066548;28;43865;-74
2023/06/20 02:14:11;;;;;;;1.57;1.57;;;23.70;68.40;;;;;;5066343;28;45722;-74
2023/06/20 02:16:39;;;;;;;1.50;1.50;;;23.60;68.40;;;;;;5095005;27;44364;-76
2023/06/20 02:19:07;;;;;;;1.50;1.50;;;23.60;68.40;;;;;;5068200;28;43367;-75
2023/06/20 02:21:37;;;;;;;1.40;1.40;;;23.60;68.20;;;;;;5067026;28;43503;-76
2023/06/20 02:24:06;;;;;;;1.60;1.60;;;23.60;68.40;;;;;;5100011;27;46327;-75
2023/06/20 02:26:35;;;;;;;1.40;1.40;;;23.60;68.80;;;;;;5067610;28;44228;-76
2023/06/20 02:29:08;;;;;;;1.53;1.53;;;23.60;68.80;;;;;;5061689;28;43359;-79
2023/06/20 02:31:40;;;;;;;1.37;1.37;;;23.70;68.40;;;;;;5065848;28;43474;-75
2023/06/20 02:34:09;;;;;;;1.40;1.40;;;23.90;68.00;;;;;;5067163;28;43971;-76
2023/06/20 02:36:37;;;;;;;1.50;1.50;;;23.90;67.60;;;;;;5067882;28;43392;-75
2023/06/20 02:39:05;;;;;;;1.50;1.50;;;23.90;67.50;;;;;;5066041;28;43466;-75
2023/06/20 02:41:33;;;;;;;1.50;1.50;;;23.90;67.40;;;;;;5066063;28;43428;-75
2023/06/20 02:44:01;;;;;;;1.70;1.70;;;23.90;67.60;;;;;;5065805;28;45931;-76
2023/06/20 02:46:31;;;;;;;1.50;1.50;;;23.80;68.10;;;;;;5065522;28;44734;-75
2023/06/20 02:49:07;;;;;;;1.60;1.60;;;23.70;68.00;;;;;;5067261;28;43406;-75
2023/06/20 02:51:37;;;;;;;1.50;1.50;;;23.70;67.90;;;;;;5067327;28;43518;-75
2023/06/20 02:54:09;;;;;;;1.53;1.53;;;23.70;68.00;;;;;;5065480;28;45982;-75
2023/06/20 02:56:37;;;;;;;1.60;1.60;;;23.60;68.40;;;;;;5066428;28;43944;-77
2023/06/20 02:59:05;;;;;;;1.50;1.50;;;23.60;68.50;;;;;;5065899;28;43375;-76
2023/06/20 03:01:33;;;;;;;1.50;1.50;;;23.60;68.30;;;;;;5065888;28;43462;-76
2023/06/20 03:04:03;;;;;;;1.57;1.57;;;23.60;68.30;;;;;;5067059;28;43873;-75
2023/06/20 03:06:32;;;;;;;1.50;1.50;;;23.60;68.70;;;;;;5065022;28;45852;-75
2023/06/20 03:09:03;;;;;;;1.70;1.70;;;23.50;68.80;;;;;;5065501;28;43356;-74
2023/06/20 03:11:33;;;;;;;1.50;1.50;;;23.60;68.60;;;;;;5066118;28;44163;-75
2023/06/20 03:14:03;;;;;;;1.50;1.50;;;23.70;68.30;;;;;;5065612;28;45920;-75
2023/06/20 03:16:33;;;;;;;1.50;1.50;;;23.80;67.80;;;;;;5060747;28;44751;-75
2023/06/20 03:19:04;;;;;;;1.70;1.70;;;23.90;67.80;;;;;;5058910;28;43424;-73
2023/06/20 03:21:32;;;;;;;1.73;1.63;;;23.90;67.50;;;;;;5059767;28;43589;-73
2023/06/20 03:24:03;;;;;;;1.50;1.50;;;23.80;67.40;;;;;;5064994;28;44037;-74
2023/06/20 03:26:32;;;;;;;1.60;1.60;;;23.80;68.10;;;;;;5065094;28;43449;-74
2023/06/20 03:29:00;;;;;;;1.50;1.50;;;23.70;68.10;;;;;;5065498;28;43799;-74
2023/06/20 03:31:28;;;;;;;1.50;1.50;;;23.70;68.00;;;;;;5064876;28;43624;-74
2023/06/20 03:33:58;;;;;;;1.40;1.40;;;23.70;68.00;;;;;;5065396;28;44477;-75
2023/06/20 03:36:28;;;;;;;1.70;1.70;;;23.60;68.50;;;;;;5065733;28;44621;-74
2023/06/20 03:38:57;;;;;;;1.60;1.60;;;23.60;68.60;;;;;;5065192;28;43343;-75
2023/06/20 03:41:26;;;;;;;1.60;1.60;;;23.60;68.50;;;;;;5060340;28;43462;-76
2023/06/20 03:43:55;;;;;;;1.60;1.60;;;23.60;68.30;;;;;;5065096;28;43948;-75
2023/06/20 03:46:23;;;;;;;1.60;1.60;;;23.60;68.60;;;;;;5064988;28;44714;-77
2023/06/20 03:48:51;;;;;;;1.40;1.40;;;23.60;68.90;;;;;;5064424;28;43890;-74
2023/06/20 03:51:19;;;;;;;1.27;1.27;;;23.60;68.80;;;;;;5065095;28;43384;-76
2023/06/20 03:53:49;;;;;;;1.33;1.33;;;23.70;68.30;;;;;;5063947;28;43947;-74
2023/06/20 03:56:18;;;;;;;1.57;1.57;;;23.80;67.90;;;;;;5065042;28;43932;-75
2023/06/20 03:58:46;;;;;;;1.57;1.57;;;23.90;67.60;;;;;;5065398;28;43472;-76
2023/06/20 04:01:14;;;;;;;1.60;1.60;;;23.90;67.40;;;;;;5065754;28;44395;-75
2023/06/20 04:03:43;;;;;;;1.63;1.63;;;23.90;67.30;;;;;;5064873;28;45824;-76
2023/06/20 04:06:11;;;;;;;1.70;1.70;;;23.80;67.70;;;;;;5060538;28;44826;-74
2023/06/20 04:08:39;;;;;;;1.40;1.40;;;23.80;68.00;;;;;;5065221;28;43934;-75
2023/06/20 04:11:08;;;;;;;1.47;1.47;;;23.70;67.90;;;;;;5065977;28;43486;-75
2023/06/20 04:13:36;;;;;;;1.57;1.57;;;23.70;68.50;;;;;;5060815;28;45937;-75
2023/06/20 04:16:04;;;;;;;1.70;1.70;;;23.70;68.20;;;;;;5064722;28;45064;-75
2023/06/20 04:18:32;;;;;;;1.50;1.50;;;23.60;68.50;;;;;;5065124;28;43438;-76
2023/06/20 04:21:02;;;;;;;1.70;1.70;;;23.60;68.40;;;;;;5066618;28;44000;-74
2023/06/20 04:23:30;;;;;;;1.60;1.60;;;23.60;68.30;;;;;;5064722;28;45367;-74
2023/06/20 04:25:58;;;;;;;1.67;1.67;;;23.60;68.30;;;;;;5065945;28;43354;-74
2023/06/20 04:28:28;;;;;;;1.57;1.57;;;23.50;68.80;;;;;;5064014;28;43441;-75
2023/06/20 04:30:59;;;;;;;1.60;1.60;;;23.60;68.70;;;;;;5061772;28;43550;-74
2023/06/20 04:33:28;;;;;;;1.63;1.63;;;23.70;68.40;;;;;;5064421;28;45370;-75
2023/06/20 04:35:58;;;;;;;1.80;1.70;;;23.80;68.00;;;;;;5064301;28;44731;-76
2023/06/20 04:38:34;;;;;;;1.60;1.60;;;23.90;67.70;;;;;;5064437;28;43387;-76
2023/06/20 04:41:02;;;;;;;1.80;1.80;;;23.90;67.60;;;;;;5064913;28;43878;-75
2023/06/20 04:43:32;;;;;;;1.50;1.50;;;23.90;67.60;;;;;;5063618;28;45760;-75
2023/06/20 04:46:00;;;;;;;1.70;1.70;;;23.80;67.80;;;;;;5064284;28;44439;-75
2023/06/20 04:48:29;;;;;;;1.90;1.90;;;23.80;68.30;;;;;;5064110;28;43426;-75
2023/06/20 04:50:58;;;;;;;1.60;1.60;;;23.70;68.20;;;;;;5065141;28;44015;-75
2023/06/20 04:53:26;;;;;;;1.90;1.90;;;23.70;68.20;;;;;;5065348;28;45818;-76
2023/06/20 04:55:55;;;;;;;1.70;1.70;;;23.70;68.30;;;;;;5067882;28;44349;-78
2023/06/20 04:58:28;;;;;;;1.83;1.83;;;23.60;68.80;;;;;;5067324;28;43473;-76
2023/06/20 05:00:57;;;;;;;1.80;1.80;;;23.60;68.70;;;;;;5069558;28;43484;-75
2023/06/20 05:03:25;;;;;;;1.90;1.90;;;23.60;68.60;;;;;;5067038;28;45617;-75
2023/06/20 05:05:54;;;;;;;2.10;2.10;;;23.60;68.60;;;;;;5067535;28;45017;-76
2023/06/20 05:08:22;;;;;;;2.20;2.20;;;23.50;68.80;;;;;;5068003;28;44023;-76
2023/06/20 05:10:50;;;;;;;2.00;2.00;;;23.50;69.00;;;;;;5069770;28;43541;-76
2023/06/20 05:13:21;;;;;;;2.40;2.40;;;23.60;68.90;;;;;;5067468;28;45589;-75
2023/06/20 05:15:49;;;;;;;2.07;2.07;;;23.70;68.60;;;;;;5062544;28;43491;-75
2023/06/20 05:18:19;;;;;;;2.00;2.00;;;23.70;68.40;;;;;;5067544;28;44139;-73
2023/06/20 05:20:47;;;;;;;2.20;2.20;;;23.70;69.10;;;;;;5064758;28;43402;-75
2023/06/20 05:23:15;;;;;;;2.20;2.20;;;23.70;68.70;;;;;;5069097;28;43934;-75
2023/06/20 05:25:43;;;;;;;2.00;2.00;;;23.70;68.50;;;;;;5068998;28;43787;-75
2023/06/20 05:28:11;;;;;;;2.17;2.17;;;23.70;68.60;;;;;;5069302;28;43409;-75
2023/06/20 05:30:39;;;;;;;2.17;2.17;;;23.70;69.30;;;;;;5067705;28;43508;-75
2023/06/20 05:33:08;;;;;;;2.20;2.20;;;23.60;68.50;;;;;;5068847;28;43599;-75
2023/06/20 05:35:38;;;;;;;2.00;2.00;;;23.60;68.80;;;;;;5068362;28;43509;-75
2023/06/20 05:38:06;;;;;;;2.10;2.10;;;23.60;68.80;;;;;;5067367;28;43877;-75
2023/06/20 05:40:34;;;;;;;2.07;2.07;;;23.60;68.80;;;;;;5068767;28;43437;-75
2023/06/20 05:43:02;;;;;;;2.30;2.30;;;23.60;68.70;;;;;;5066837;28;45433;-74
2023/06/20 05:45:30;;;;;;;2.20;2.20;;;23.60;69.10;;;;;;5068743;28;43415;-74
2023/06/20 05:47:58;;;;;;;2.53;2.43;;;23.50;69.00;;;;;;5068328;28;43514;-75
2023/06/20 05:50:26;;;;;;;2.30;2.30;;;23.60;68.80;;;;;;5069254;28;43463;-75
2023/06/20 05:52:56;;;;;;;2.40;2.40;;;23.80;68.50;;;;;;5066825;28;45667;-75
2023/06/20 05:55:24;;;;;;;2.30;2.30;;;23.90;68.20;;;;;;5066755;28;44764;-75
2023/06/20 05:57:52;;;;;;;2.30;2.30;;;23.90;68.00;;;;;;5067374;28;43557;-74
2023/06/20 06:00:21;;;;;;;2.23;2.23;;;23.90;68.00;;;;;;5068736;28;43523;-74
2023/06/20 06:02:50;;;;;;;2.20;2.20;;;23.80;68.00;;;;;;5067972;28;43615;-79
2023/06/20 06:05:18;;;;;;;2.43;2.43;;;23.80;68.50;;;;;;5066717;28;43476;-75
2023/06/20 06:07:46;;;;;;;2.30;2.30;;;23.70;68.50;;;;;;5067089;28;43422;-76
2023/06/20 06:10:16;;;;;;;2.20;2.20;;;23.70;68.60;;;;;;5065452;28;43431;-76
2023/06/20 06:12:45;;;;;;;2.27;2.27;;;23.70;68.50;;;;;;5068432;28;43869;-75
2023/06/20 06:15:13;;;;;;;2.57;2.57;;;23.60;68.60;;;;;;5068146;28;43477;-75
2023/06/20 06:17:41;;;;;;;2.50;2.50;;;23.60;68.90;;;;;;5066475;28;43933;-75
2023/06/20 06:20:14;;;;;;;2.33;2.33;;;23.70;68.90;;;;;;5068500;28;44403;-75
2023/06/20 06:22:42;;;;;;;2.73;2.63;;;23.70;68.60;;;;;;5068717;28;44351;-75
2023/06/20 06:25:10;;;;;;;2.00;2.00;;;23.80;68.10;;;;;;5068120;28;43514;-75
2023/06/20 06:27:40;;;;;;;2.30;2.30;;;23.90;67.90;;;;;;5066216;28;43545;-75
2023/06/20 06:30:08;;;;;;;2.27;2.27;;;23.90;68.00;;;;;;5066887;28;43500;-75
2023/06/20 06:32:37;;;;;;;2.20;2.20;;;23.80;68.00;;;;;;5067515;28;43841;-75
2023/06/20 06:35:06;;;;;;;2.13;2.13;;;23.80;68.40;;;;;;5093164;27;44698;-75
2023/06/20 06:37:34;;;;;;;2.17;2.17;;;23.70;68.50;;;;;;5067715;28;43468;-75
2023/06/20 06:40:03;;;;;;;2.37;2.37;;;23.70;68.60;;;;;;5068180;28;43517;-75
2023/06/20 06:42:31;;;;;;;2.33;2.33;;;23.70;68.50;;;;;;5064291;28;43755;-75
2023/06/20 06:45:04;;;;;;;2.30;2.30;;;23.60;68.40;;;;;;5066085;28;45055;-75
2023/06/20 06:47:32;;;;;;;2.30;2.30;;;23.60;68.90;;;;;;5067362;28;43412;-75
2023/06/20 06:50:00;;;;;;;2.20;2.10;;;23.60;68.90;;;;;;5068111;28;43478;-75
2023/06/20 06:52:27;;;;;;;2.33;2.33;;;23.60;68.90;;;;;;5067119;28;43981;-75
2023/06/20 06:54:55;;;;;;;2.60;2.60;;;23.50;68.60;;;;;;5065670;28;44723;-75
2023/06/20 06:57:23;;;;;;;2.10;2.10;;;23.60;69.00;;;;;;5067734;28;43430;-74
2023/06/20 06:59:52;;;;;;;2.20;2.20;;;23.50;69.10;;;;;;5066199;28;43407;-75
2023/06/20 07:02:22;;;;;;;2.20;2.20;;;23.60;69.00;;;;;;5067295;28;43612;-75
2023/06/20 07:04:50;;;;;;;2.30;2.30;;;23.70;68.70;;;;;;5067007;28;43429;-75
2023/06/20 07:07:18;;;;;;;2.27;2.27;;;23.80;68.20;;;;;;5067341;28;44432;-75
2023/06/20 07:09:46;;;;;;;2.57;2.37;;;23.90;68.00;;;;;;5065138;28;43692;-75
2023/06/20 07:12:14;;;;;;;2.60;2.40;;;23.90;67.90;;;;;;5067170;28;43763;-75
2023/06/20 07:14:42;;;;;;;2.37;2.37;;;23.80;67.90;;;;;;5065174;28;44448;-75
2023/06/20 07:17:10;;;;;;;2.27;2.27;;;23.80;68.30;;;;;;5065285;28;43438;-74
2023/06/20 07:19:39;;;;;;;2.10;2.10;;;23.70;68.40;;;;;;5067356;28;43415;-75
2023/06/20 07:22:07;;;;;;;2.47;2.40;;;23.70;68.50;;;;;;5066044;28;45956;-75
2023/06/20 07:24:35;;;;;;;2.10;2.10;;;23.70;68.40;;;;;;5066390;28;43363;-75
2023/06/20 07:27:04;;;;;;;2.30;2.30;;;23.60;68.60;;;;;;5065018;28;44041;-74
2023/06/20 07:29:32;;;;;;;2.20;2.20;;;23.60;68.80;;;;;;5067038;28;43469;-75
2023/06/20 07:32:00;;;;;;;2.40;2.40;;;23.60;69.00;;;;;;5064858;28;45577;-75
2023/06/20 07:34:28;;;;;;;2.13;2.13;;;23.60;68.80;;;;;;5065331;28;44514;-76
2023/06/20 07:36:57;;;;;;;2.30;2.30;;;23.60;68.80;;;;;;5065559;28;43454;-75
2023/06/20 07:39:25;;;;;;;2.17;2.17;;;23.50;69.00;;;;;;5065559;28;43459;-75
2023/06/20 07:41:53;;;;;;;4.60;2.67;;;23.60;69.10;;;;;;5066592;28;43784;-75
2023/06/20 07:44:21;;;;;;;4.83;2.60;;;23.70;69.00;;;;;;5064911;28;44774;-75
2023/06/20 07:46:49;;;;;;;2.50;2.50;;;23.80;68.60;;;;;;5066733;28;43430;-75
2023/06/20 07:49:17;;;;;;;3.33;2.40;;;23.90;68.20;;;;;;5067621;28;43383;-74
2023/06/20 07:51:46;;;;;;;2.10;2.10;;;23.90;68.00;;;;;;5064810;28;44730;-75
2023/06/20 07:54:15;;;;;;;2.20;2.20;;;23.90;68.00;;;;;;5066969;28;43386;-75
2023/06/20 07:56:43;;;;;;;2.40;2.40;;;23.80;68.00;;;;;;5066714;28;43451;-75
2023/06/20 07:59:11;;;;;;;2.30;2.20;;;23.70;68.40;;;;;;5065372;28;43545;-75
2023/06/20 08:01:39;;;;;;;2.20;2.20;;;23.70;68.50;;;;;;5064832;28;46044;-75
2023/06/20 08:04:07;;;;;;;2.10;2.10;;;23.70;68.60;;;;;;5064894;28;44695;-74
2023/06/20 08:06:35;;;;;;;2.33;2.33;;;23.70;68.50;;;;;;5066413;28;43457;-75
2023/06/20 08:09:05;;;;;;;2.30;2.30;;;23.60;68.80;;;;;;5067019;28;43399;-76
2023/06/20 08:11:34;;;;;;;2.30;2.30;;;23.60;69.00;;;;;;5066039;28;43602;-75
2023/06/20 08:14:02;;;;;;;2.53;2.43;;;23.70;69.00;;;;;;5065959;28;43453;-75
2023/06/20 08:16:31;;;;;;;2.37;2.37;;;23.70;68.70;;;;;;5064987;28;43358;-75
2023/06/20 08:18:59;;;;;;;2.40;2.30;;;23.70;68.70;;;;;;5066099;28;43631;-75
2023/06/20 08:21:27;;;;;;;2.10;2.10;;;23.70;68.70;;;;;;5065826;28;43668;-76
2023/06/20 08:23:55;;;;;;;2.50;2.40;;;23.70;68.90;;;;;;5066187;28;43428;-75
2023/06/20 08:26:24;;;;;;;2.50;2.50;;;23.70;68.70;;;;;;5066221;28;43419;-74
2023/06/20 08:28:53;;;;;;;2.03;2.03;;;23.70;68.80;;;;;;5067348;28;44067;-75
2023/06/20 08:31:21;;;;;;;2.20;2.20;;;23.70;68.80;;;;;;5069173;28;43732;-75
2023/06/20 08:33:49;;;;;;;2.30;2.30;;;23.60;69.00;;;;;;5068881;28;43453;-75
2023/06/20 08:36:21;;;;;;;2.93;2.73;;;23.60;69.00;;;;;;5069020;28;43360;-73
2023/06/20 08:38:49;;;;;;;2.23;2.10;;;23.70;68.80;;;;;;5069549;28;43490;-75
2023/06/20 08:41:17;;;;;;;2.37;2.37;;;23.70;68.50;;;;;;5068569;28;43725;-74
2023/06/20 08:43:48;;;;;;;2.30;2.30;;;23.80;68.50;;;;;;5062077;28;44392;-74
2023/06/20 08:46:18;;;;;;;2.23;2.23;;;23.70;68.60;;;;;;5068658;28;43364;-75
2023/06/20 08:48:46;;;;;;;2.13;2.13;;;23.70;68.70;;;;;;5069774;28;43454;-75
2023/06/20 08:51:17;;;;;;;2.40;2.40;;;23.70;68.70;;;;;;5069342;28;43615;-74
2023/06/20 08:53:46;;;;;;;2.20;2.17;;;23.70;68.60;;;;;;5069462;28;43953;-75
2023/06/20 08:56:14;;;;;;;2.20;2.20;;;23.70;68.70;;;;;;5069699;28;43380;-75
2023/06/20 08:58:42;;;;;;;2.40;2.40;;;23.60;68.90;;;;;;5069863;28;43371;-76
2023/06/20 09:01:10;;;;;;;2.53;2.53;;;23.60;68.90;;;;;;5069133;28;43598;-75
2023/06/20 09:03:40;;;;;;;2.40;2.40;;;23.60;68.90;;;;;;5069046;28;43392;-75
2023/06/20 09:06:08;;;;;;;2.43;2.43;;;23.60;68.90;;;;;;5069092;28;43454;-75
2023/06/20 09:08:37;;;;;;;2.50;2.40;;;23.50;69.10;;;;;;5069479;28;43364;-76
2023/06/20 09:11:06;;;;;;;2.30;2.30;;;23.60;69.20;;;;;;5067780;28;45825;-75
2023/06/20 09:13:34;;;;;;;2.40;2.20;;;23.60;69.20;;;;;;5068967;28;43645;-75
2023/06/20 09:16:07;;;;;;;2.30;2.30;;;23.50;69.00;;;;;;5068542;28;44438;-76
2023/06/20 09:18:35;;;;;;;2.67;2.67;;;23.50;69.30;;;;;;5067564;28;43582;-79
2023/06/20 09:21:04;;;;;;;2.30;2.30;;;23.50;69.30;;;;;;5066249;28;46079;-76
2023/06/20 09:23:33;;;;;;;2.50;2.40;;;23.60;69.10;;;;;;5066458;28;45003;-74
2023/06/20 09:26:14;;;;;;;2.50;2.50;;;23.70;69.50;;;;;;5066534;28;43396;-75
2023/06/20 09:28:42;;;;;;;2.40;2.40;;;23.90;68.40;;;;;;5083528;27;44363;-74
2023/06/20 09:31:10;;;;;;;2.80;2.70;;;23.90;68.20;;;;;;5068275;28;44042;-75
2023/06/20 09:33:38;;;;;;;2.50;2.50;;;23.90;68.20;;;;;;5067072;28;44440;-75
2023/06/20 09:36:17;;;;;;;2.53;2.30;;;23.90;68.20;;;;;;5068246;28;43403;-74
2023/06/20 09:38:45;;;;;;;2.30;2.30;;;23.80;68.50;;;;;;5069577;28;43422;-75
2023/06/20 09:41:17;;;;;;;2.50;2.50;;;23.70;68.50;;;;;;5067382;28;43890;-74
2023/06/20 09:43:45;;;;;;;2.40;2.40;;;23.70;68.60;;;;;;5063148;28;43498;-75
2023/06/20 09:46:13;;;;;;;2.30;2.30;;;23.70;68.60;;;;;;5069165;28;43359;-75
2023/06/20 09:48:41;;;;;;;2.17;2.17;;;23.60;68.80;;;;;;5067706;28;43489;-75
2023/06/20 09:51:10;;;;;;;2.67;2.57;;;23.60;68.80;;;;;;5068662;28;43594;-75
2023/06/20 09:53:44;;;;;;;2.70;2.70;;;23.60;68.80;;;;;;5068355;28;43742;-75
2023/06/20 09:56:13;;;;;;;2.33;2.33;;;23.60;68.90;;;;;;5067018;28;43402;-75
2023/06/20 09:58:41;;;;;;;2.27;2.20;;;23.60;69.10;;;;;;5067175;28;43484;-75
2023/06/20 10:01:10;;;;;;;2.80;2.80;;;23.60;69.00;;;;;;5067948;28;43754;-74
2023/06/20 10:03:38;;;;;;;2.50;2.40;;;23.60;68.80;;;;;;5067737;28;43347;-76
2023/06/20 10:06:06;;;;;;;2.33;2.33;;;23.70;68.60;;;;;;5068618;28;43541;-74
2023/06/20 10:08:34;;;;;;;2.20;2.20;;;23.90;68.20;;;;;;5066927;28;43537;-76
2023/06/20 10:11:03;;;;;;;2.43;2.33;;;23.90;67.90;;;;;;5066398;28;44614;-76
2023/06/20 10:13:31;;;;;;;2.40;2.40;;;24.00;68.00;;;;;;5068291;28;43421;-75
2023/06/20 10:15:59;;;;;;;2.57;2.50;;;23.90;68.00;;;;;;5066778;28;43372;-74
2023/06/20 10:18:35;;;;;;;2.37;2.37;;;23.80;68.20;;;;;;5068513;28;43388;-75
2023/06/20 10:21:06;;;;;;;2.60;2.50;;;23.80;68.30;;;;;;5065559;28;45388;-75
2023/06/20 10:23:36;;;;;;;2.37;2.37;;;23.80;68.40;;;;;;5068000;28;43938;-75
2023/06/20 10:26:07;;;;;;;2.07;2.07;;;23.70;69.10;;;;;;5067960;28;43427;-75
2023/06/20 10:28:37;;;;;;;2.40;2.40;;;23.70;68.40;;;;;;5068574;28;43462;-76
2023/06/20 10:31:05;;;;;;;2.37;2.30;;;23.60;68.60;;;;;;5068013;28;43881;-76
2023/06/20 10:33:33;;;;;;;2.40;2.40;;;23.60;68.50;;;;;;5066071;28;45115;-76
2023/06/20 10:36:03;;;;;;;2.27;2.27;;;23.60;68.70;;;;;;5067883;28;43434;-75
2023/06/20 10:38:32;;;;;;;2.20;2.20;;;23.60;68.50;;;;;;5068484;28;43431;-74
2023/06/20 10:41:12;;;;;;;2.37;2.37;;;23.60;69.00;;;;;;5067620;28;43601;-79
2023/06/20 10:43:50;;;;;;;2.40;2.40;;;23.60;69.10;;;;;;5066264;28;44697;-75
2023/06/20 10:46:18;;;;;;;2.40;2.40;;;23.60;69.00;;;;;;5063149;28;43999;-73
2023/06/20 10:48:46;;;;;;;2.37;2.27;;;23.60;68.80;;;;;;5068603;28;43945;-75
2023/06/20 10:51:14;;;;;;;2.40;2.30;;;23.60;69.20;;;;;;5065461;28;46283;-74
2023/06/20 10:53:42;;;;;;;2.20;2.20;;;23.60;69.20;;;;;;5067359;28;44021;-74
2023/06/20 10:56:23;;;;;;;2.20;2.20;;;23.60;68.90;;;;;;5067810;28;43382;-74
2023/06/20 10:58:52;;;;;;;2.33;2.33;;;23.80;68.70;;;;;;5067551;28;43918;-74
2023/06/20 11:01:19;;;;;;;2.20;2.20;;;23.90;68.30;;;;;;5065896;28;45406;-75
2023/06/20 11:03:48;;;;;;;2.50;2.50;;;24.00;68.00;;;;;;5067375;28;43382;-76
2023/06/20 11:06:17;;;;;;;2.57;2.57;;;24.00;67.90;;;;;;5067779;28;43415;-75
2023/06/20 11:08:45;;;;;;;2.40;2.40;;;24.00;68.00;;;;;;5067355;28;43449;-75
2023/06/20 11:11:13;;;;;;;2.40;2.40;;;23.90;68.10;;;;;;5067447;28;43653;-76
2023/06/20 11:13:43;;;;;;;2.10;2.10;;;23.90;68.30;;;;;;5067371;28;43463;-76
2023/06/20 11:16:18;;;;;;;2.20;2.20;;;23.80;68.30;;;;;;5066647;28;43413;-75
2023/06/20 11:18:46;;;;;;;2.30;2.30;;;23.80;68.30;;;;;;5065139;28;43442;-74
2023/06/20 11:21:15;;;;;;;2.30;2.30;;;23.80;68.50;;;;;;5066250;28;43876;-75
2023/06/20 11:23:44;;;;;;;2.53;2.53;;;23.70;68.70;;;;;;5066675;28;43443;-75
2023/06/20 11:26:11;;;;;;;2.50;2.47;;;23.70;68.70;;;;;;5066814;28;43352;-75
2023/06/20 11:28:39;;;;;;;2.30;2.17;;;23.70;68.70;;;;;;5067247;28;43559;-74
2023/06/20 11:31:11;;;;;;;2.20;2.20;;;23.70;68.50;;;;;;5066229;28;44957;-75
2023/06/20 11:33:39;;;;;;;2.50;2.50;;;23.60;68.90;;;;;;5065540;28;46052;-76
2023/06/20 11:36:07;;;;;;;2.70;2.70;;;23.60;68.90;;;;;;5065509;28;43396;-75
2023/06/20 11:38:39;;;;;;;2.27;2.27;;;23.60;68.90;;;;;;5064331;28;43472;-75
2023/06/20 11:41:07;;;;;;;2.17;2.17;;;23.60;68.60;;;;;;5066636;28;43884;-75
2023/06/20 11:43:37;;;;;;;2.60;2.50;;;23.60;69.00;;;;;;5066753;28;43501;-75
2023/06/20 11:46:05;;;;;;;2.70;2.70;;;23.60;69.10;;;;;;5064953;28;43695;-75
2023/06/20 11:48:34;;;;;;;2.43;2.40;;;23.60;68.90;;;;;;5097323;27;44039;-75
2023/06/20 11:51:03;;;;;;;2.50;2.43;;;23.70;68.70;;;;;;5066254;28;43887;-76
2023/06/20 11:53:34;;;;;;;2.60;2.50;;;23.90;68.40;;;;;;5065944;28;43951;-74
2023/06/20 11:56:04;;;;;;;2.60;2.43;;;23.90;68.30;;;;;;5065794;28;44078;-76
2023/06/20 11:58:40;;;;;;;2.30;2.30;;;23.90;68.20;;;;;;5066945;28;43510;-74
2023/06/20 12:01:10;;;;;;;2.40;2.30;;;23.90;68.20;;;;;;5066679;28;43600;-75
2023/06/20 12:03:41;;;;;;;2.40;2.40;;;23.80;68.50;;;;;;5057138;28;44986;-75
2023/06/20 12:06:28;;;;;;;2.47;2.47;;;23.70;68.50;;;;;;5065572;28;43956;-74
2023/06/20 12:08:57;;;;;;;2.27;2.27;;;23.70;68.60;;;;;;5066341;28;43505;-75
2023/06/20 12:11:25;;;;;;;2.50;2.40;;;23.70;68.60;;;;;;5066302;28;43825;-74
2023/06/20 12:13:53;;;;;;;2.60;2.60;;;23.70;69.00;;;;;;5064206;28;44371;-76
2023/06/20 12:16:21;;;;;;;2.47;2.47;;;23.70;69.00;;;;;;5065081;28;43930;-77
2023/06/20 12:18:59;;;;;;;2.70;2.70;;;23.70;68.90;;;;;;5063635;28;43507;-79
2023/06/20 12:21:27;;;;;;;2.50;2.50;;;23.80;68.40;;;;;;5066018;28;43731;-79
2023/06/20 12:23:55;;;;;;;2.27;2.27;;;23.80;68.20;;;;;;5063857;28;44759;-75
2023/06/20 12:26:23;;;;;;;2.90;2.90;;;23.80;68.20;;;;;;5064538;28;43369;-75
2023/06/20 12:28:51;;;;;;;2.90;2.80;;;23.80;68.30;;;;;;5066707;28;43352;-74
2023/06/20 12:31:19;;;;;;;2.97;2.87;;;23.80;68.10;;;;;;5064248;28;45435;-74
2023/06/20 12:33:47;;;;;;;3.17;3.07;;;23.80;68.10;;;;;;5065956;28;43449;-73
2023/06/20 12:36:17;;;;;;;3.30;3.20;;;23.70;68.00;;;;;;5066520;28;43288;-75
2023/06/20 12:38:45;;;;;;;3.33;3.23;;;23.70;68.30;;;;;;5066779;28;43424;-75
2023/06/20 12:41:13;;;;;;;3.13;3.03;;;23.70;68.30;;;;;;5065962;28;43623;-75
2023/06/20 12:43:41;;;;;;;3.20;3.10;;;23.70;68.40;;;;;;5064095;28;44704;-74
2023/06/20 12:46:10;;;;;;;3.00;3.00;;;23.70;68.30;;;;;;5064195;28;43416;-74
2023/06/20 12:48:38;;;;;;;3.10;3.00;;;23.70;68.10;;;;;;5064816;28;43565;-74
2023/06/20 12:51:06;;;;;;;3.30;3.20;;;23.70;68.60;;;;;;5065355;28;43965;-74
2023/06/20 12:53:35;;;;;;;3.30;3.20;;;23.70;68.70;;;;;;5065600;28;43492;-75
2023/06/20 12:56:04;;;;;;;3.00;2.90;;;23.70;68.40;;;;;;5061619;28;43748;-75
2023/06/20 12:58:33;;;;;;;3.13;3.07;;;23.90;68.20;;;;;;5066007;28;43490;-75